createdAt,value
2023-11-15T00:07:25.203Z,75.05
2023-11-15T00:17:31.929Z,74.63
2023-11-15T00:27:34.955Z,73.99
2023-11-15T00:37:39.070Z,74.20
2023-11-15T00:47:42.038Z,74.13
2023-11-15T00:57:46.416Z,74.22
2023-11-15T01:07:49.545Z,73.78
2023-11-15T01:17:54.382Z,74.17
2023-11-15T01:27:57.424Z,74.02
2023-11-15T01:38:02.061Z,73.87
2023-11-15T01:48:05.833Z,73.42
2023-11-15T01:58:10.615Z,73.14
2023-11-15T02:08:14.426Z,73.18
2023-11-15T02:18:19.252Z,72.99
2023-11-15T02:28:23.756Z,73.15
2023-11-15T02:38:26.605Z,73.62
2023-11-15T02:48:31.002Z,73.77
2023-11-15T02:58:33.875Z,73.72
2023-11-15T03:08:38.801Z,73.69
2023-11-15T03:18:43.981Z,73.61
2023-11-15T03:28:48.312Z,73.68
2023-11-15T03:38:54.065Z,73.15
2023-11-15T03:48:58.248Z,73.21
2023-11-15T04:09:20.139Z,72.81
2023-11-15T04:19:24.047Z,72.71
2023-11-15T04:29:28.170Z,73.09
2023-11-15T04:39:30.973Z,72.65
2023-11-15T04:49:35.061Z,72.62
2023-11-15T04:59:38.082Z,71.86
2023-11-15T05:09:42.397Z,72.18
2023-11-15T05:19:45.466Z,72.40
2023-11-15T05:29:51.665Z,72.12
2023-11-15T05:39:54.639Z,72.20
2023-11-15T05:49:58.754Z,72.13
2023-11-15T06:00:01.962Z,71.99
2023-11-15T06:10:16.737Z,71.66
2023-11-15T06:20:20.200Z,71.88
2023-11-15T06:30:25.030Z,71.35
2023-11-15T06:40:27.904Z,71.58
2023-11-15T06:50:35.598Z,71.62
2023-11-15T07:00:38.379Z,71.49
2023-11-15T07:10:43.519Z,71.73
2023-11-15T07:20:47.980Z,71.41
2023-11-15T07:30:56.922Z,71.73
2023-11-15T07:41:01.328Z,70.75
2023-11-15T07:51:06.636Z,70.91
2023-11-15T08:01:10.873Z,70.50
2023-11-15T08:11:16.420Z,70.18
2023-11-15T08:21:19.453Z,70.31
2023-11-15T08:31:24.853Z,69.44
2023-11-15T08:41:28.086Z,68.16
2023-11-15T08:51:33.233Z,67.82
2023-11-15T09:01:36.258Z,67.42
2023-11-15T09:11:41.739Z,66.43
2023-11-15T09:21:48.428Z,66.37
2023-11-15T09:31:55.278Z,66.58
2023-11-15T09:42:01.228Z,66.00
2023-11-15T09:52:06.793Z,63.37
2023-11-15T10:02:12.435Z,64.02
2023-11-15T10:12:19.942Z,62.09
2023-11-15T10:22:24.119Z,59.77
2023-11-15T10:32:35.993Z,61.07
2023-11-15T10:42:40.843Z,58.45
2023-11-15T10:52:45.453Z,57.26
2023-11-15T11:02:51.098Z,57.99
2023-11-15T11:12:57.433Z,51.02
2023-11-15T11:23:12.895Z,43.67
2023-11-15T11:33:20.757Z,40.84
2023-11-15T11:43:24.172Z,50.36
2023-11-15T11:53:28.799Z,54.25
2023-11-15T12:03:32.772Z,54.10
2023-11-15T12:13:49.577Z,56.13
2023-11-15T12:23:52.686Z,57.46
2023-11-15T12:33:57.057Z,57.81
2023-11-15T12:44:04.300Z,58.94
2023-11-15T12:54:10.051Z,54.96
2023-11-15T13:04:13.686Z,56.59
2023-11-15T13:14:23.319Z,54.26
2023-11-15T13:24:27.370Z,55.50
2023-11-15T13:34:32.502Z,55.94
2023-11-15T13:44:35.958Z,57.61
2023-11-15T13:54:40.199Z,57.29
2023-11-15T14:04:43.704Z,57.48
2023-11-15T14:14:48.279Z,57.68
2023-11-15T14:24:51.417Z,56.74
2023-11-15T14:34:55.817Z,57.75
2023-11-15T14:44:58.771Z,59.04
2023-11-15T14:55:07.745Z,60.63
2023-11-15T15:05:11.347Z,61.40
2023-11-15T15:15:17.751Z,62.12
2023-11-15T15:25:20.989Z,62.38
2023-11-15T15:35:25.224Z,62.01
2023-11-15T15:45:28.350Z,62.56
2023-11-15T15:55:32.729Z,63.08
2023-11-15T16:05:35.748Z,62.87
2023-11-15T16:15:40.194Z,62.95
2023-11-15T16:25:43.202Z,64.02
2023-11-15T16:35:49.498Z,64.78
2023-11-15T16:45:52.447Z,65.01
2023-11-15T16:55:56.758Z,66.44
2023-11-15T17:06:00.073Z,66.50
2023-11-15T17:16:04.751Z,66.68
2023-11-15T17:26:08.454Z,67.20
2023-11-15T17:36:12.926Z,67.74
2023-11-15T17:46:16.020Z,68.20
2023-11-15T17:56:20.253Z,68.93
2023-11-15T18:06:24.366Z,69.05
2023-11-15T18:16:31.082Z,68.94
2023-11-15T18:26:36.683Z,69.48
2023-11-15T18:36:44.349Z,69.83
2023-11-15T18:46:53.011Z,69.42
2023-11-15T18:56:58.650Z,70.01
2023-11-15T19:07:01.709Z,70.71
2023-11-15T19:17:07.441Z,70.72
2023-11-15T19:27:10.460Z,70.58
2023-11-15T19:37:15.014Z,70.33
2023-11-15T19:47:18.143Z,70.21
2023-11-15T19:57:23.083Z,70.20
2023-11-15T20:07:27.299Z,70.09
2023-11-15T20:17:33.092Z,70.49
2023-11-15T20:27:37.572Z,70.50
2023-11-15T20:37:41.933Z,70.94
2023-11-15T20:47:45.282Z,71.17
2023-11-15T20:57:50.369Z,71.24
2023-11-15T21:07:53.522Z,71.28
2023-11-15T21:17:58.079Z,71.30
2023-11-15T21:28:01.028Z,70.93
2023-11-15T21:38:05.980Z,70.64
2023-11-15T21:48:09.066Z,70.89
2023-11-15T21:58:13.449Z,71.13
2023-11-15T22:08:16.636Z,71.13
2023-11-15T22:18:23.383Z,71.09
2023-11-15T22:28:28.197Z,70.68
2023-11-15T22:38:32.474Z,70.11
2023-11-15T22:48:37.403Z,69.60
2023-11-15T22:58:41.630Z,69.26
2023-11-15T23:08:45.517Z,69.15
2023-11-15T23:18:49.850Z,68.96
2023-11-15T23:28:53.282Z,68.56
2023-11-15T23:38:57.669Z,68.18
2023-11-15T23:49:00.820Z,68.08
2023-11-15T23:59:05.280Z,68.06
